Hewitt, Texas
Current Conditions -  °F | °C
As of 4:35 PM on Sunday 21 Dec 2014 (Local Time) from KPWG Reporting Station
Overcast Overcast  
Wind Chill: 54°   Ceiling: 1900
Heat Index: 54°   Visibility: 10mi
Dew Point: 45°   Wind: 18mph
Humidity: 72%   Direction: 160°SSE
Pressure: 29.87"   Gusts: NA
Location:  31.47°N, 97.2°W
Report Text: KPWG 212235Z AUTO 16016KT 10SM OVC019 12/07 A2987 RMK AO1
Loading
Personal Weather Stations






























Interactive Weather Map New forecast layout! Learn more

10-Day Weather Forecast

Advertisements
Track Severe Weather on mobile